createdAt,value
2022-08-06T00:02:05.728Z,20.30
2022-08-06T00:04:38.301Z,20.30
2022-08-06T00:07:06.657Z,20.30
2022-08-06T00:09:56.619Z,20.20
2022-08-06T00:12:22.439Z,20.20
2022-08-06T00:14:57.650Z,20.20
2022-08-06T00:17:31.669Z,20.10
2022-08-06T00:20:03.773Z,20.10
2022-08-06T00:22:32.033Z,20.10
2022-08-06T00:25:01.051Z,20.00
2022-08-06T00:27:38.736Z,20.00
2022-08-06T00:30:14.828Z,20.00
2022-08-06T00:32:52.134Z,20.00
2022-08-06T00:35:23.437Z,20.00
2022-08-06T00:37:56.561Z,20.00
2022-08-06T00:40:26.558Z,19.90
2022-08-06T00:42:58.110Z,19.90
2022-08-06T00:45:26.205Z,19.90
2022-08-06T00:48:01.770Z,19.90
2022-08-06T00:50:33.945Z,19.80
2022-08-06T00:53:03.889Z,19.80
2022-08-06T00:55:36.462Z,19.80
2022-08-06T00:58:05.445Z,19.70
2022-08-06T01:00:38.463Z,19.70
2022-08-06T01:03:27.292Z,19.50
2022-08-06T01:06:53.228Z,19.40
2022-08-06T01:08:45.379Z,19.40
2022-08-06T01:11:14.413Z,19.30
2022-08-06T01:14:03.033Z,19.30
2022-08-06T01:16:39.230Z,19.30
2022-08-06T01:21:21.877Z,19.30
2022-08-06T01:22:58.069Z,19.30
2022-08-06T01:25:47.033Z,19.40
2022-08-06T01:28:22.935Z,19.40
2022-08-06T01:31:03.621Z,19.40
2022-08-06T01:33:38.875Z,19.40
2022-08-06T01:36:12.131Z,19.40
2022-08-06T01:38:57.680Z,19.30
2022-08-06T01:41:58.325Z,19.30
2022-08-06T01:44:33.270Z,19.30
2022-08-06T01:47:05.817Z,19.30
2022-08-06T01:50:02.223Z,19.20
2022-08-06T01:52:36.668Z,19.20
2022-08-06T01:55:09.988Z,19.10
2022-08-06T01:58:07.481Z,19.10
2022-08-06T02:00:35.099Z,19.00
2022-08-06T02:03:18.102Z,19.00
2022-08-06T02:05:53.781Z,19.00
2022-08-06T02:08:36.553Z,19.00
2022-08-06T02:12:00.945Z,18.90
2022-08-06T02:14:01.831Z,18.80
2022-08-06T02:16:35.685Z,18.80
2022-08-06T02:19:12.362Z,18.80
2022-08-06T02:21:43.925Z,18.70
2022-08-06T02:24:19.660Z,18.70
2022-08-06T02:26:48.818Z,18.70
2022-08-06T02:29:21.061Z,18.70
2022-08-06T02:31:52.325Z,18.60
2022-08-06T02:34:27.180Z,18.50
2022-08-06T02:37:04.883Z,18.50
2022-08-06T02:39:47.471Z,18.50
2022-08-06T02:42:25.921Z,18.40
2022-08-06T02:45:03.269Z,18.40
2022-08-06T02:47:56.157Z,18.20
2022-08-06T02:50:36.725Z,18.20
2022-08-06T02:53:23.793Z,18.30
2022-08-06T02:55:56.637Z,18.20
2022-08-06T02:58:38.740Z,18.20
2022-08-06T03:01:10.956Z,18.20
2022-08-06T03:03:55.126Z,18.10
2022-08-06T03:06:30.987Z,18.10
2022-08-06T03:09:01.170Z,18.00
2022-08-06T03:11:33.453Z,18.00
2022-08-06T03:14:31.939Z,18.00
2022-08-06T03:16:58.663Z,18.00
2022-08-06T03:19:54.455Z,17.90
2022-08-06T03:22:35.303Z,17.90
2022-08-06T03:25:09.053Z,17.90
2022-08-06T03:27:42.933Z,17.90
2022-08-06T03:30:31.903Z,17.90
2022-08-06T03:33:07.949Z,17.80
2022-08-06T03:35:55.093Z,17.80
2022-08-06T03:38:28.205Z,17.80
2022-08-06T03:40:58.978Z,17.80
2022-08-06T03:43:45.737Z,17.80
2022-08-06T03:46:22.471Z,17.80
2022-08-06T03:48:54.170Z,17.80
2022-08-06T03:51:51.126Z,17.80
2022-08-06T03:54:27.795Z,17.80
2022-08-06T03:56:59.271Z,17.70
2022-08-06T03:59:31.711Z,17.70
2022-08-06T04:02:08.119Z,17.70
2022-08-06T04:04:53.107Z,17.60
2022-08-06T04:07:24.234Z,17.60
2022-08-06T04:10:13.921Z,17.60
2022-08-06T04:13:08.746Z,17.60
2022-08-06T04:15:39.559Z,17.50
2022-08-06T04:18:11.032Z,17.50
2022-08-06T04:20:43.681Z,17.40
2022-08-06T04:23:13.613Z,17.40
2022-08-06T04:25:44.266Z,17.30
2022-08-06T04:28:14.204Z,17.30
2022-08-06T04:30:47.145Z,17.20
2022-08-06T04:33:20.932Z,17.20
2022-08-06T04:36:18.281Z,17.20
2022-08-06T04:38:54.394Z,17.10
2022-08-06T04:41:25.648Z,17.10
2022-08-06T04:43:55.397Z,17.10
2022-08-06T04:46:27.466Z,17.10
2022-08-06T04:49:00.650Z,17.10
2022-08-06T04:52:34.614Z,17.00
2022-08-06T04:54:19.010Z,17.00
2022-08-06T04:56:50.457Z,17.00
2022-08-06T04:59:19.267Z,16.90
2022-08-06T05:01:57.342Z,16.90
2022-08-06T05:04:30.529Z,16.90
2022-08-06T05:07:13.135Z,16.90
2022-08-06T05:09:44.064Z,17.00
2022-08-06T05:12:26.346Z,16.90
2022-08-06T05:14:59.076Z,16.90
2022-08-06T05:17:34.797Z,17.00
2022-08-06T05:20:26.049Z,17.00
2022-08-06T05:23:03.721Z,17.00
2022-08-06T05:25:37.395Z,17.00
2022-08-06T05:28:10.985Z,17.00
2022-08-06T05:30:45.475Z,17.00
2022-08-06T05:33:16.682Z,17.10
2022-08-06T05:35:45.906Z,17.10
2022-08-06T05:38:35.846Z,17.10
2022-08-06T05:41:07.477Z,17.10
2022-08-06T05:43:59.264Z,17.20
2022-08-06T05:46:26.623Z,17.30
2022-08-06T05:49:01.119Z,17.30
2022-08-06T05:54:23.907Z,17.30
2022-08-06T05:57:04.595Z,17.30
2022-08-06T05:59:38.308Z,17.30
2022-08-06T06:02:26.911Z,17.30
2022-08-06T06:06:03.518Z,17.30
2022-08-06T06:08:07.991Z,17.30
2022-08-06T06:10:34.578Z,17.30
2022-08-06T06:13:25.335Z,17.40
2022-08-06T06:16:04.634Z,17.40
2022-08-06T06:18:45.955Z,17.40
2022-08-06T06:21:31.731Z,17.40
2022-08-06T06:24:08.865Z,17.40
2022-08-06T06:26:44.325Z,17.50
2022-08-06T06:29:59.822Z,17.60
2022-08-06T06:32:31.150Z,17.70
2022-08-06T06:35:07.104Z,17.60
2022-08-06T06:37:47.852Z,17.80
2022-08-06T06:40:36.972Z,17.80
2022-08-06T06:43:10.940Z,17.90
2022-08-06T06:46:05.411Z,18.00
2022-08-06T06:48:43.023Z,18.00
2022-08-06T06:51:26.929Z,18.10
2022-08-06T06:54:22.772Z,18.10
2022-08-06T06:56:54.282Z,18.10
2022-08-06T07:00:00.884Z,18.10
2022-08-06T07:02:28.086Z,21.40
2022-08-06T07:04:59.492Z,18.30
2022-08-06T07:07:29.410Z,18.30
2022-08-06T07:10:01.902Z,18.40
2022-08-06T07:12:35.827Z,18.40
2022-08-06T07:15:16.885Z,18.50
2022-08-06T07:17:53.762Z,18.50
2022-08-06T07:20:30.779Z,18.50
2022-08-06T07:24:06.086Z,18.60
2022-08-06T07:25:54.587Z,18.70
2022-08-06T07:28:28.327Z,18.70
2022-08-06T07:31:03.799Z,18.70
2022-08-06T07:34:00.080Z,18.80
2022-08-06T07:36:55.438Z,18.80
2022-08-06T07:39:27.960Z,18.80
2022-08-06T07:42:11.217Z,19.00
2022-08-06T07:44:54.776Z,18.90
2022-08-06T07:47:41.465Z,19.10
2022-08-06T07:50:23.634Z,19.10
2022-08-06T07:52:55.552Z,19.10
2022-08-06T07:55:26.596Z,19.20
2022-08-06T07:58:06.946Z,19.20
2022-08-06T08:00:38.802Z,19.20
2022-08-06T08:03:55.830Z,19.20
2022-08-06T08:06:21.296Z,19.30
2022-08-06T08:08:52.848Z,19.40
2022-08-06T08:11:38.155Z,19.50
2022-08-06T08:14:10.920Z,19.50
2022-08-06T08:16:41.659Z,19.50
2022-08-06T08:19:26.094Z,19.50
2022-08-06T08:21:57.389Z,19.50
2022-08-06T08:24:27.652Z,19.50
2022-08-06T08:27:17.127Z,19.50
2022-08-06T08:29:55.059Z,19.60
2022-08-06T08:32:25.293Z,19.60
2022-08-06T08:37:25.873Z,19.70
2022-08-06T08:39:55.608Z,19.60
2022-08-06T08:42:32.172Z,19.60
2022-08-06T08:45:02.022Z,19.60
2022-08-06T08:47:47.058Z,19.60
2022-08-06T08:50:21.905Z,19.70
2022-08-06T08:52:53.618Z,19.70
2022-08-06T08:57:10.176Z,19.70
2022-08-06T08:58:40.365Z,19.90
2022-08-06T09:01:07.516Z,19.90
2022-08-06T09:03:36.590Z,20.00
2022-08-06T09:06:09.721Z,20.00
2022-08-06T09:09:02.780Z,20.00
2022-08-06T09:12:04.037Z,20.10
2022-08-06T09:14:22.792Z,20.10
2022-08-06T09:17:03.119Z,20.10
2022-08-06T09:19:38.031Z,20.10
2022-08-06T09:22:09.950Z,20.20
2022-08-06T09:24:40.405Z,20.30
2022-08-06T09:27:47.333Z,20.30
2022-08-06T09:30:04.206Z,20.40
2022-08-06T09:32:56.716Z,20.50
2022-08-06T09:35:44.877Z,20.40
2022-08-06T09:41:15.150Z,20.50
2022-08-06T09:44:02.867Z,20.50
2022-08-06T09:46:40.609Z,20.50
2022-08-06T09:49:45.724Z,20.50
2022-08-06T09:52:13.884Z,20.60
2022-08-06T09:54:42.659Z,20.60
2022-08-06T09:57:10.586Z,20.70
2022-08-06T09:59:50.279Z,20.70
2022-08-06T10:02:23.729Z,20.80
2022-08-06T10:05:19.632Z,20.80
2022-08-06T10:07:52.909Z,20.90
2022-08-06T10:10:40.756Z,21.00
2022-08-06T10:13:15.017Z,21.10
2022-08-06T10:16:00.293Z,21.10
2022-08-06T10:18:56.126Z,21.30
2022-08-06T10:21:26.862Z,21.30
2022-08-06T10:23:57.907Z,21.30
2022-08-06T10:26:30.933Z,21.30
2022-08-06T10:29:06.610Z,21.30
2022-08-06T10:34:11.368Z,21.40
2022-08-06T10:36:42.611Z,21.40
2022-08-06T10:40:09.923Z,21.50
2022-08-06T10:42:04.083Z,21.60
2022-08-06T10:44:39.041Z,21.60
2022-08-06T10:47:18.089Z,21.60
2022-08-06T10:50:29.613Z,21.70
2022-08-06T10:52:51.553Z,21.70
2022-08-06T10:55:19.573Z,21.80
2022-08-06T10:57:49.028Z,21.90
2022-08-06T11:00:21.337Z,21.90
2022-08-06T11:02:58.492Z,21.80
2022-08-06T11:05:53.394Z,21.80
2022-08-06T11:08:43.008Z,21.90
2022-08-06T11:11:39.317Z,22.00
2022-08-06T11:14:19.176Z,22.20
2022-08-06T11:16:56.996Z,22.30
2022-08-06T11:19:46.740Z,22.30
2022-08-06T11:22:35.657Z,22.40
2022-08-06T11:25:04.654Z,22.40
2022-08-06T11:27:59.287Z,22.50
2022-08-06T11:30:45.894Z,22.60
2022-08-06T11:33:17.310Z,22.60
2022-08-06T11:35:54.820Z,22.60
2022-08-06T11:39:07.961Z,22.70
2022-08-06T11:41:55.145Z,22.80
2022-08-06T11:44:27.406Z,22.80
2022-08-06T11:47:15.365Z,22.80
2022-08-06T11:49:46.662Z,22.80
2022-08-06T11:52:43.922Z,22.80
2022-08-06T11:55:23.074Z,22.90
2022-08-06T11:57:55.019Z,22.90
2022-08-06T12:00:24.268Z,22.80
2022-08-06T12:02:59.989Z,22.90
2022-08-06T12:05:35.674Z,22.80
2022-08-06T12:08:42.654Z,22.90
2022-08-06T12:11:42.165Z,23.00
2022-08-06T12:14:46.887Z,23.20
2022-08-06T12:17:18.354Z,23.20
2022-08-06T12:20:01.820Z,23.20
2022-08-06T12:22:32.327Z,23.30
2022-08-06T12:25:09.729Z,23.30
2022-08-06T12:27:45.994Z,23.30
2022-08-06T12:30:36.591Z,23.30
2022-08-06T12:33:10.528Z,23.40
2022-08-06T12:35:50.653Z,23.30
2022-08-06T12:38:24.749Z,23.30
2022-08-06T12:40:58.387Z,23.40
2022-08-06T12:43:29.613Z,23.50
2022-08-06T12:46:19.190Z,23.60
2022-08-06T12:48:51.247Z,23.60
2022-08-06T12:51:27.302Z,23.60
2022-08-06T12:54:01.225Z,23.60
2022-08-06T12:56:36.529Z,23.70
2022-08-06T12:59:16.099Z,23.80
2022-08-06T13:02:07.237Z,23.90
2022-08-06T13:04:38.145Z,23.90
2022-08-06T13:07:09.222Z,23.90
2022-08-06T13:10:15.595Z,23.80
2022-08-06T13:14:03.314Z,23.80
2022-08-06T13:15:23.265Z,23.80
2022-08-06T13:20:58.913Z,23.80
2022-08-06T13:23:34.399Z,23.80
2022-08-06T13:26:16.053Z,23.80
2022-08-06T13:30:34.858Z,23.80
2022-08-06T13:32:19.164Z,24.00
2022-08-06T13:34:56.134Z,24.00
2022-08-06T13:37:56.204Z,24.00
2022-08-06T13:40:46.875Z,24.00
2022-08-06T13:43:37.999Z,24.10
2022-08-06T13:46:17.369Z,24.10
2022-08-06T13:48:50.009Z,24.10
2022-08-06T13:51:29.039Z,24.10
2022-08-06T13:53:59.027Z,24.20
2022-08-06T13:56:31.301Z,24.20
2022-08-06T13:58:59.682Z,24.20
2022-08-06T14:01:45.444Z,24.20
2022-08-06T14:04:15.394Z,24.20
2022-08-06T14:09:20.721Z,24.20
2022-08-06T14:11:53.997Z,24.30
2022-08-06T14:14:24.671Z,24.30
2022-08-06T14:16:55.536Z,24.50
2022-08-06T14:20:01.846Z,24.50
2022-08-06T14:22:11.862Z,24.60
2022-08-06T14:24:40.128Z,24.60
2022-08-06T14:27:15.811Z,24.70
2022-08-06T14:30:29.755Z,24.70
2022-08-06T14:32:34.072Z,24.70
2022-08-06T14:35:04.740Z,24.80
2022-08-06T14:37:50.246Z,24.90
2022-08-06T14:41:01.732Z,24.90
2022-08-06T14:43:55.805Z,25.00
2022-08-06T14:46:26.991Z,25.20
2022-08-06T14:48:58.587Z,25.10
2022-08-06T14:51:37.736Z,25.20
2022-08-06T14:54:17.349Z,25.30
2022-08-06T14:56:52.364Z,25.30
2022-08-06T14:59:22.045Z,25.30
2022-08-06T15:01:50.514Z,25.40
2022-08-06T15:04:23.810Z,25.40
2022-08-06T15:06:57.145Z,25.40
2022-08-06T15:10:06.039Z,25.50
2022-08-06T15:12:34.180Z,25.60
2022-08-06T15:15:04.966Z,25.60
2022-08-06T15:18:03.656Z,25.80
2022-08-06T15:20:25.479Z,25.70
2022-08-06T15:22:55.973Z,25.80
2022-08-06T15:26:00.078Z,25.90
2022-08-06T15:28:14.446Z,25.90
2022-08-06T15:30:47.071Z,26.00
2022-08-06T15:33:15.617Z,26.00
2022-08-06T15:35:57.176Z,26.10
2022-08-06T15:38:28.096Z,26.30
2022-08-06T15:41:01.561Z,26.10
2022-08-06T15:43:44.427Z,26.10
2022-08-06T15:46:14.685Z,26.10
2022-08-06T15:48:56.389Z,26.10
2022-08-06T15:51:31.368Z,26.10
2022-08-06T15:54:01.563Z,26.20
2022-08-06T15:56:33.642Z,26.30
2022-08-06T15:59:11.881Z,26.50
2022-08-06T16:02:01.512Z,26.70
2022-08-06T16:04:29.126Z,26.60
2022-08-06T16:07:00.113Z,26.80
2022-08-06T16:09:28.962Z,26.80
2022-08-06T16:11:58.410Z,27.50
2022-08-06T16:14:33.715Z,27.00
2022-08-06T16:17:06.270Z,27.20
2022-08-06T16:19:48.975Z,27.30
2022-08-06T16:22:19.639Z,27.20
2022-08-06T16:24:48.762Z,27.20
2022-08-06T16:27:17.727Z,27.20
2022-08-06T16:29:48.373Z,27.30
2022-08-06T16:32:22.931Z,27.30
2022-08-06T16:34:59.004Z,27.30
2022-08-06T16:37:32.826Z,27.30
2022-08-06T16:40:05.137Z,27.40
2022-08-06T16:42:35.019Z,27.30
2022-08-06T16:45:11.905Z,27.30
2022-08-06T16:48:04.331Z,27.20
2022-08-06T16:50:37.298Z,27.20
2022-08-06T16:54:13.537Z,27.30
2022-08-06T16:55:55.730Z,27.40
2022-08-06T16:58:35.050Z,27.50
2022-08-06T17:02:19.313Z,27.60
2022-08-06T17:04:00.639Z,27.60
2022-08-06T17:06:34.201Z,27.60
2022-08-06T17:09:16.866Z,27.70
2022-08-06T17:11:58.067Z,28.00
2022-08-06T17:17:18.030Z,28.10
2022-08-06T17:19:55.721Z,28.30
2022-08-06T17:22:30.399Z,28.30
2022-08-06T17:25:00.506Z,28.50
2022-08-06T17:27:43.097Z,28.50
2022-08-06T17:30:16.885Z,29.10
2022-08-06T17:32:47.209Z,29.30
2022-08-06T17:35:17.530Z,29.40
2022-08-06T17:40:48.778Z,29.60
2022-08-06T17:43:23.041Z,30.00
2022-08-06T17:46:25.755Z,30.40
2022-08-06T17:48:54.189Z,30.70
2022-08-06T17:51:22.582Z,31.00
2022-08-06T17:53:53.553Z,31.90
2022-08-06T17:56:30.759Z,32.20
2022-08-06T17:59:10.978Z,32.20
2022-08-06T18:01:46.011Z,33.20
2022-08-06T18:04:21.754Z,33.40
2022-08-06T18:06:51.019Z,33.70
2022-08-06T18:10:11.113Z,33.80
2022-08-06T18:12:12.927Z,33.20
2022-08-06T18:14:41.427Z,33.20
2022-08-06T18:17:16.975Z,33.20
2022-08-06T18:19:46.150Z,33.40
2022-08-06T18:22:23.069Z,33.60
2022-08-06T18:24:55.650Z,33.70
2022-08-06T18:27:54.544Z,33.30
2022-08-06T18:30:29.763Z,32.90
2022-08-06T18:33:08.462Z,32.30
2022-08-06T18:35:55.833Z,32.20
2022-08-06T18:38:31.945Z,31.80
2022-08-06T18:41:06.138Z,31.10
2022-08-06T18:43:49.959Z,30.70
2022-08-06T18:46:55.776Z,29.50
2022-08-06T18:49:15.482Z,28.30
2022-08-06T18:51:45.242Z,27.40
2022-08-06T18:54:22.688Z,27.20
2022-08-06T18:56:52.059Z,26.70
2022-08-06T18:59:22.987Z,25.60
2022-08-06T19:01:51.902Z,25.10
2022-08-06T19:04:19.977Z,24.80
2022-08-06T19:06:57.069Z,24.40
2022-08-06T19:09:33.702Z,24.30
2022-08-06T19:12:12.154Z,23.90
2022-08-06T19:14:48.798Z,23.60
2022-08-06T19:17:47.782Z,23.60
2022-08-06T19:20:20.322Z,23.30
2022-08-06T19:22:53.122Z,23.10
2022-08-06T19:28:31.046Z,23.00
2022-08-06T19:30:45.627Z,22.80
2022-08-06T19:33:16.535Z,22.70
2022-08-06T19:36:07.690Z,22.60
2022-08-06T19:38:34.264Z,22.50
2022-08-06T19:44:24.799Z,22.30
2022-08-06T19:46:29.345Z,22.30
2022-08-06T19:49:01.357Z,22.20
2022-08-06T19:52:01.339Z,22.20
2022-08-06T19:54:25.959Z,22.10
2022-08-06T19:56:55.949Z,22.00
2022-08-06T20:02:15.448Z,21.80
2022-08-06T20:04:44.187Z,21.80
2022-08-06T20:07:33.971Z,21.80
2022-08-06T20:10:03.731Z,21.70
2022-08-06T20:12:34.900Z,21.60
2022-08-06T20:15:04.901Z,21.60
2022-08-06T20:17:46.309Z,21.50
2022-08-06T20:20:30.322Z,21.50
2022-08-06T20:23:08.092Z,21.50
2022-08-06T20:26:02.734Z,21.40
2022-08-06T20:29:07.182Z,21.40
2022-08-06T20:31:13.604Z,21.30
2022-08-06T20:36:28.807Z,21.20
2022-08-06T20:38:56.791Z,21.10
2022-08-06T20:41:57.928Z,21.00
2022-08-06T20:44:14.217Z,21.00
2022-08-06T20:47:45.232Z,21.00
2022-08-06T20:50:02.503Z,20.90
2022-08-06T20:54:58.261Z,20.80
2022-08-06T20:57:34.131Z,20.80
2022-08-06T21:00:12.262Z,20.70
2022-08-06T21:03:02.811Z,20.60
2022-08-06T21:05:46.809Z,20.60
2022-08-06T21:08:18.475Z,20.50
2022-08-06T21:10:46.483Z,20.50
2022-08-06T21:13:14.859Z,20.40
2022-08-06T21:16:14.720Z,20.40
2022-08-06T21:18:54.734Z,20.40
2022-08-06T21:21:31.935Z,20.40
2022-08-06T21:24:06.017Z,20.30
2022-08-06T21:26:35.182Z,20.30
2022-08-06T21:30:07.438Z,20.30
2022-08-06T21:31:58.004Z,20.20
2022-08-06T21:36:56.774Z,20.20
2022-08-06T21:42:15.464Z,20.10
2022-08-06T21:44:45.442Z,20.10
2022-08-06T21:47:26.255Z,20.10
2022-08-06T21:50:19.298Z,20.00
2022-08-06T21:56:38.206Z,20.00
2022-08-06T21:58:08.989Z,19.90
2022-08-06T22:00:45.675Z,19.90
2022-08-06T22:04:37.419Z,19.90
2022-08-06T22:06:21.612Z,19.90
2022-08-06T22:08:55.075Z,19.90
2022-08-06T22:14:15.876Z,19.80
2022-08-06T22:16:48.194Z,19.70
2022-08-06T22:19:17.774Z,19.70
2022-08-06T22:21:50.866Z,19.60
2022-08-06T22:24:22.797Z,19.60
2022-08-06T22:26:56.292Z,19.60
2022-08-06T22:29:27.756Z,19.60
2022-08-06T22:31:59.888Z,19.60
2022-08-06T22:37:04.672Z,19.50
2022-08-06T22:39:34.746Z,19.40
2022-08-06T22:47:33.410Z,19.30
2022-08-06T22:50:05.253Z,19.30
2022-08-06T22:52:59.155Z,19.30
2022-08-06T22:55:22.555Z,19.30
2022-08-06T22:58:04.179Z,19.20
2022-08-06T23:00:40.112Z,19.10
2022-08-06T23:03:13.342Z,19.20
2022-08-06T23:05:44.822Z,19.10
2022-08-06T23:08:15.297Z,19.00
2022-08-06T23:10:48.339Z,19.00
2022-08-06T23:13:25.849Z,19.00
2022-08-06T23:18:29.658Z,18.90
2022-08-06T23:21:21.941Z,18.90
2022-08-06T23:23:52.144Z,18.80
2022-08-06T23:26:31.139Z,18.80
2022-08-06T23:28:59.989Z,18.80
2022-08-06T23:31:34.100Z,18.70
2022-08-06T23:34:20.698Z,18.70
2022-08-06T23:36:54.666Z,18.70
2022-08-06T23:39:36.776Z,18.60
2022-08-06T23:42:22.046Z,18.60
2022-08-06T23:44:51.752Z,18.60
2022-08-06T23:47:54.505Z,18.60
2022-08-06T23:50:09.748Z,18.60
2022-08-06T23:52:41.726Z,18.50
2022-08-06T23:55:13.897Z,18.50
2022-08-06T23:57:56.649Z,18.50
